Terminal Aerodrome Forecast
Issued by NWS Louisville, KY

Home | Current Version | Previous Version | Text Only | Print | Product List | Glossary On
Versions: 1 2 3 4 5 6 7 8 9 10 11 12 13
000
FTUS43 KLMK 022326
TAFLEX
TAF
KLEX 022326Z 0300/0324 00000KT P6SM SKC
     FM031000 00000KT 5SM BR SKC
     FM031300 32005KT P6SM FEW050=

USA.gov is the U.S. government's official web portal to all federal, state and local government web resources and services.